Time;durP1;ratioP1;P1;durP2;ratioP2;P2;SDS_P1;SDS_P2;PMS_P1;PMS_P2;Temp;Humidity;BMP_temperature;BMP_pressure;BME280_temperature;BME280_humidity;BME280_pressure;Samples;Min_cycle;Max_cycle;Signal;HPM_P1;HPM_P2
2022/03/28 00:00:01;;;;;;;;;;;8.90;53.70;;;;;;5089117;28;19966;-74
2022/03/28 00:02:26;;;;;;;;;;;8.80;53.70;;;;;;5090645;28;19912;-73
2022/03/28 00:04:52;;;;;;;;;;;8.80;53.80;;;;;;5089447;28;19920;-74
2022/03/28 00:07:17;;;;;;;;;;;8.80;53.80;;;;;;5090767;28;19913;-73
2022/03/28 00:09:43;;;;;;;;;;;8.70;53.80;;;;;;5090660;28;19916;-74
2022/03/28 00:12:09;;;;;;;;;;;8.70;53.80;;;;;;5087701;28;19913;-74
2022/03/28 00:14:34;;;;;;;;;;;8.70;53.90;;;;;;5090231;28;19968;-73
2022/03/28 00:17:00;;;;;;;;;;;8.60;53.90;;;;;;5088941;28;20405;-73
2022/03/28 00:19:25;;;;;;;;;;;8.60;53.90;;;;;;5090109;28;20282;-74
2022/03/28 00:21:51;;;;;;;;;;;8.50;53.90;;;;;;5090183;28;20030;-73
2022/03/28 00:24:17;;;;;;;;;;;8.50;54.00;;;;;;5088693;28;20431;-73
2022/03/28 00:26:42;;;;;;;;;;;8.40;54.10;;;;;;5089934;28;19912;-74
2022/03/28 00:29:08;;;;;;;;;;;8.40;54.10;;;;;;5089882;28;19918;-73
2022/03/28 00:31:34;;;;;;;;;;;8.40;54.00;;;;;;5089932;28;20001;-74
2022/03/28 00:33:59;;;;;;;;;;;8.40;53.90;;;;;;5089879;28;19912;-73
2022/03/28 00:36:25;;;;;;;;;;;8.30;53.90;;;;;;5088534;28;19920;-74
2022/03/28 00:38:51;;;;;;;;;;;8.30;54.00;;;;;;5089747;28;19919;-73
2022/03/28 00:41:17;;;;;;;;;;;8.30;54.10;;;;;;5089455;28;20419;-74
2022/03/28 00:44:03;;;;;;;;;;;8.30;54.00;;;;;;5089563;28;19920;-73
2022/03/28 00:46:29;;;;;;;;;;;8.30;53.90;;;;;;5089520;28;19923;-73
2022/03/28 00:48:54;;;;;;;;;;;8.30;53.90;;;;;;5089536;28;19912;-73
2022/03/28 00:51:21;;;;;;;;;;;8.30;53.80;;;;;;5088295;28;19912;-74
2022/03/28 00:53:46;;;;;;;;;;;8.30;53.90;;;;;;5089315;28;19969;-73
2022/03/28 00:56:13;;;;;;;;;;;8.20;53.80;;;;;;5089601;28;20382;-74
2022/03/28 00:58:38;;;;;;;;;;;8.20;53.80;;;;;;5088087;28;19916;-74
2022/03/28 01:01:04;;;;;;;;;;;8.20;53.80;;;;;;5087950;28;19930;-74
2022/03/28 01:03:30;;;;;;;;;;;8.20;53.80;;;;;;5088018;28;20432;-73
2022/03/28 01:05:56;;;;;;;;;;;8.10;53.80;;;;;;5089125;28;20044;-74
2022/03/28 01:08:23;;;;;;;;;;;8.00;54.00;;;;;;5089230;28;19908;-74
2022/03/28 01:10:51;;;;;;;;;;;7.90;54.10;;;;;;5088227;28;19919;-73
2022/03/28 01:13:17;;;;;;;;;;;7.90;54.20;;;;;;5089302;28;20347;-74
2022/03/28 01:15:43;;;;;;;;;;;8.00;54.20;;;;;;5089012;28;19999;-74
2022/03/28 01:18:09;;;;;;;;;;;8.00;54.10;;;;;;5089559;28;20019;-73
2022/03/28 01:20:38;;;;;;;;;;;8.00;54.00;;;;;;5088948;28;19913;-73
2022/03/28 01:23:05;;;;;;;;;;;7.90;54.00;;;;;;5087191;28;19944;-73
2022/03/28 01:25:30;;;;;;;;;;;8.00;54.00;;;;;;5088942;28;19956;-74
2022/03/28 01:27:58;;;;;;;;;;;8.00;54.00;;;;;;5088859;28;19920;-74
2022/03/28 01:30:25;;;;;;;;;;;8.00;54.10;;;;;;5087448;28;20428;-73
2022/03/28 01:32:51;;;;;;;;;;;7.90;54.00;;;;;;5089260;28;19908;-74
2022/03/28 01:35:38;;;;;;;;;;;7.80;54.60;;;;;;5088779;28;20373;-73
2022/03/28 01:38:05;;;;;;;;;;;7.70;54.10;;;;;;5088883;28;19919;-74
2022/03/28 01:40:31;;;;;;;;;;;7.50;54.20;;;;;;5088551;28;19909;-73
2022/03/28 01:42:57;;;;;;;;;;;7.50;54.40;;;;;;5088402;28;19927;-73
2022/03/28 01:45:22;;;;;;;;;;;7.40;54.40;;;;;;5087237;28;20296;-74
2022/03/28 01:47:48;;;;;;;;;;;7.40;54.40;;;;;;5087109;28;20006;-74
2022/03/28 01:50:14;;;;;;;;;;;7.40;54.40;;;;;;5088420;28;19912;-73
2022/03/28 01:52:40;;;;;;;;;;;7.50;54.30;;;;;;5088410;28;19908;-73
2022/03/28 01:55:06;;;;;;;;;;;7.50;54.20;;;;;;5088376;28;19908;-73
2022/03/28 01:57:32;;;;;;;;;;;7.60;54.20;;;;;;5088585;28;20275;-73
2022/03/28 01:59:58;;;;;;;;;;;7.60;54.20;;;;;;5088340;28;19908;-74
2022/03/28 02:02:23;;;;;;;;;;;7.70;54.20;;;;;;5088325;28;19944;-74
2022/03/28 02:04:49;;;;;;;;;;;7.70;54.00;;;;;;5088222;28;20013;-73
2022/03/28 02:07:16;;;;;;;;;;;7.70;54.00;;;;;;5088318;28;19916;-74
2022/03/28 02:09:41;;;;;;;;;;;7.70;53.90;;;;;;5088170;28;19916;-74
2022/03/28 02:12:07;;;;;;;;;;;7.70;53.90;;;;;;5088246;28;19916;-73
2022/03/28 02:14:32;;;;;;;;;;;7.70;53.90;;;;;;5088354;28;19916;-73
2022/03/28 02:16:58;;;;;;;;;;;7.60;53.80;;;;;;5086786;28;19919;-73
2022/03/28 02:19:24;;;;;;;;;;;7.60;53.90;;;;;;5088030;28;19920;-74
2022/03/28 02:21:49;;;;;;;;;;;7.50;53.90;;;;;;5088170;28;20371;-73
2022/03/28 02:24:15;;;;;;;;;;;7.60;53.90;;;;;;5088049;28;19920;-73
2022/03/28 02:26:40;;;;;;;;;;;7.50;53.90;;;;;;5088180;28;19912;-74
2022/03/28 02:29:06;;;;;;;;;;;7.30;54.00;;;;;;5086697;28;19914;-73
2022/03/28 02:31:32;;;;;;;;;;;7.30;54.20;;;;;;5088089;28;19920;-73
2022/03/28 02:33:57;;;;;;;;;;;7.30;54.30;;;;;;5069909;28;20006;-73
2022/03/28 02:36:23;;;;;;;;;;;7.30;54.20;;;;;;5090111;28;19916;-73
2022/03/28 02:38:48;;;;;;;;;;;7.30;54.40;;;;;;5092201;28;19912;-74
2022/03/28 02:41:14;;;;;;;;;;;7.30;54.30;;;;;;5091901;28;19912;-73
2022/03/28 02:43:40;;;;;;;;;;;7.30;54.10;;;;;;5091928;28;19922;-74
2022/03/28 02:46:05;;;;;;;;;;;7.20;54.10;;;;;;5092130;28;20053;-73
2022/03/28 02:48:31;;;;;;;;;;;7.30;54.30;;;;;;5091998;28;20535;-74
2022/03/28 02:50:56;;;;;;;;;;;7.20;54.20;;;;;;5091840;28;19909;-74
2022/03/28 02:53:22;;;;;;;;;;;7.10;54.30;;;;;;5090526;28;19916;-74
2022/03/28 02:55:48;;;;;;;;;;;7.00;54.30;;;;;;5092032;28;19962;-73
2022/03/28 02:58:13;;;;;;;;;;;6.90;55.00;;;;;;5091620;28;19912;-74
2022/03/28 03:00:39;;;;;;;;;;;6.90;54.60;;;;;;5091621;28;19912;-73
2022/03/28 03:03:04;;;;;;;;;;;6.90;54.60;;;;;;5091743;28;19916;-73
2022/03/28 03:05:30;;;;;;;;;;;7.00;54.50;;;;;;5091599;28;20380;-73
2022/03/28 03:07:55;;;;;;;;;;;7.00;54.40;;;;;;5091677;28;19955;-74
2022/03/28 03:10:21;;;;;;;;;;;7.00;54.30;;;;;;5091563;28;19958;-74
2022/03/28 03:12:47;;;;;;;;;;;7.00;54.30;;;;;;5091584;28;19913;-73
2022/03/28 03:15:12;;;;;;;;;;;7.00;54.20;;;;;;5091468;28;19912;-73
2022/03/28 03:17:38;;;;;;;;;;;7.00;54.20;;;;;;5091352;28;20381;-73
2022/03/28 03:20:04;;;;;;;;;;;6.90;54.10;;;;;;5091395;28;19920;-74
2022/03/28 03:22:30;;;;;;;;;;;6.90;54.30;;;;;;5091341;28;20007;-74
2022/03/28 03:24:55;;;;;;;;;;;6.90;54.40;;;;;;5091249;28;20466;-74
2022/03/28 03:27:21;;;;;;;;;;;7.00;54.30;;;;;;5091316;28;19912;-73
2022/03/28 03:29:47;;;;;;;;;;;7.00;54.30;;;;;;5091190;28;19908;-74
2022/03/28 03:32:13;;;;;;;;;;;7.10;54.20;;;;;;5091083;28;19916;-73
2022/03/28 03:34:39;;;;;;;;;;;7.10;54.10;;;;;;5089848;28;19922;-73
2022/03/28 03:37:05;;;;;;;;;;;7.00;54.10;;;;;;5091084;28;20311;-74
2022/03/28 03:39:30;;;;;;;;;;;7.00;54.20;;;;;;5090906;28;19942;-74
2022/03/28 03:41:56;;;;;;;;;;;7.00;54.30;;;;;;5090752;28;19923;-74
2022/03/28 03:44:21;;;;;;;;;;;7.10;54.80;;;;;;5090788;28;19912;-74
2022/03/28 03:46:48;;;;;;;;;;;7.10;54.20;;;;;;5090494;28;19918;-73
2022/03/28 03:49:13;;;;;;;;;;;7.10;54.10;;;;;;5090708;28;19934;-74
2022/03/28 03:51:39;;;;;;;;;;;7.10;54.40;;;;;;5090738;28;20513;-74
2022/03/28 03:54:05;;;;;;;;;;;7.10;54.20;;;;;;5090727;28;19920;-73
2022/03/28 03:56:31;;;;;;;;;;;7.10;54.20;;;;;;5089308;28;19908;-74
2022/03/28 03:58:57;;;;;;;;;;;7.00;54.20;;;;;;5090521;28;19908;-74
2022/03/28 04:01:23;;;;;;;;;;;7.00;54.40;;;;;;5090269;28;19919;-74
2022/03/28 04:03:48;;;;;;;;;;;6.80;54.40;;;;;;5090256;28;20323;-73
2022/03/28 04:06:14;;;;;;;;;;;6.80;54.50;;;;;;5090448;28;20358;-74
2022/03/28 04:08:40;;;;;;;;;;;6.90;54.60;;;;;;5089174;28;19912;-74
2022/03/28 04:11:06;;;;;;;;;;;6.90;54.40;;;;;;5090339;28;19908;-73
2022/03/28 04:13:32;;;;;;;;;;;7.00;54.40;;;;;;5090367;28;19938;-74
2022/03/28 04:15:58;;;;;;;;;;;7.00;54.30;;;;;;5088916;28;20382;-74
2022/03/28 04:18:25;;;;;;;;;;;7.00;54.20;;;;;;5090285;28;19993;-73
2022/03/28 04:20:52;;;;;;;;;;;7.10;54.30;;;;;;5090235;28;19954;-73
2022/03/28 04:23:18;;;;;;;;;;;7.10;54.30;;;;;;5090189;28;19908;-74
2022/03/28 04:25:43;;;;;;;;;;;7.10;54.40;;;;;;5088595;28;19920;-74
2022/03/28 04:28:09;;;;;;;;;;;7.20;54.40;;;;;;5089996;28;20269;-74
2022/03/28 04:30:34;;;;;;;;;;;7.30;54.30;;;;;;5089888;28;19912;-74
2022/03/28 04:33:00;;;;;;;;;;;7.30;54.20;;;;;;5090040;28;19908;-73
2022/03/28 04:35:26;;;;;;;;;;;7.30;54.20;;;;;;5088553;28;19922;-74
2022/03/28 04:37:51;;;;;;;;;;;7.30;54.20;;;;;;5089911;28;19950;-74
2022/03/28 04:40:17;;;;;;;;;;;7.30;54.30;;;;;;5089711;28;20007;-73
2022/03/28 04:42:44;;;;;;;;;;;7.40;54.20;;;;;;5089543;28;19928;-74
2022/03/28 04:45:09;;;;;;;;;;;7.40;54.50;;;;;;5089587;28;20021;-74
2022/03/28 04:47:35;;;;;;;;;;;7.40;54.40;;;;;;5089533;28;20006;-73
2022/03/28 04:50:01;;;;;;;;;;;7.40;54.50;;;;;;5089470;28;19912;-74
2022/03/28 04:52:27;;;;;;;;;;;7.40;54.50;;;;;;5089530;28;19912;-73
2022/03/28 04:54:52;;;;;;;;;;;7.40;54.50;;;;;;5089600;28;19912;-74
2022/03/28 04:57:18;;;;;;;;;;;7.40;54.40;;;;;;5087459;28;19963;-74
2022/03/28 04:59:44;;;;;;;;;;;7.40;54.40;;;;;;5089169;28;19957;-73
2022/03/28 05:02:09;;;;;;;;;;;7.40;54.40;;;;;;5089363;28;19908;-74
2022/03/28 05:04:35;;;;;;;;;;;7.40;54.40;;;;;;5089304;28;19966;-74
2022/03/28 05:07:00;;;;;;;;;;;7.40;54.40;;;;;;5089608;28;19973;-74
2022/03/28 05:09:26;;;;;;;;;;;7.40;54.40;;;;;;5089214;28;20353;-73
2022/03/28 05:11:52;;;;;;;;;;;7.40;54.40;;;;;;5087808;28;19923;-73
2022/03/28 05:14:22;;;;;;;;;;;7.40;54.50;;;;;;5087705;28;20358;-74
2022/03/28 05:16:48;;;;;;;;;;;7.40;54.50;;;;;;5089185;28;19919;-73
2022/03/28 05:19:14;;;;;;;;;;;7.40;54.50;;;;;;5088968;28;20339;-74
2022/03/28 05:21:39;;;;;;;;;;;7.50;54.80;;;;;;5088999;28;20325;-74
2022/03/28 05:24:05;;;;;;;;;;;7.40;54.50;;;;;;5087573;28;19912;-74
2022/03/28 05:26:31;;;;;;;;;;;7.40;54.50;;;;;;5088914;28;19934;-73
2022/03/28 05:28:57;;;;;;;;;;;7.40;54.50;;;;;;5088402;28;19990;-73
2022/03/28 05:31:22;;;;;;;;;;;7.40;54.60;;;;;;5088926;28;20568;-74
2022/03/28 05:33:48;;;;;;;;;;;7.40;54.70;;;;;;5089059;28;20247;-74
2022/03/28 05:36:13;;;;;;;;;;;7.40;54.70;;;;;;5087551;28;19946;-73
2022/03/28 05:38:40;;;;;;;;;;;7.30;54.50;;;;;;5088698;28;20281;-74
2022/03/28 05:41:06;;;;;;;;;;;7.30;54.70;;;;;;5088483;28;20263;-74
2022/03/28 05:43:33;;;;;;;;;;;7.30;54.90;;;;;;5088424;28;19932;-73
2022/03/28 05:45:58;;;;;;;;;;;7.10;55.40;;;;;;5088537;28;19919;-74
2022/03/28 05:48:24;;;;;;;;;;;7.00;55.40;;;;;;5088579;28;19912;-74
2022/03/28 05:50:49;;;;;;;;;;;6.90;55.20;;;;;;5088296;28;20014;-72
2022/03/28 05:53:15;;;;;;;;;;;6.80;55.40;;;;;;5088216;28;19921;-73
2022/03/28 05:55:41;;;;;;;;;;;6.70;55.90;;;;;;5088311;28;19944;-74
2022/03/28 05:58:08;;;;;;;;;;;6.60;55.70;;;;;;5086989;28;19915;-74
2022/03/28 06:00:34;;;;;;;;;;;6.50;55.70;;;;;;5088062;28;19912;-73
2022/03/28 06:03:00;;;;;;;;;;;6.50;55.70;;;;;;5086843;28;20333;-74
2022/03/28 06:05:25;;;;;;;;;;;6.40;55.50;;;;;;5088078;28;19948;-74
2022/03/28 06:07:51;;;;;;;;;;;6.40;55.60;;;;;;5088133;28;20087;-74
2022/03/28 06:10:17;;;;;;;;;;;6.30;55.60;;;;;;5088266;28;19912;-74
2022/03/28 06:12:42;;;;;;;;;;;6.30;55.50;;;;;;5086781;28;20370;-74
2022/03/28 06:15:08;;;;;;;;;;;6.30;55.60;;;;;;5088233;28;19916;-74
2022/03/28 06:17:34;;;;;;;;;;;6.20;55.60;;;;;;5088257;28;20373;-74
2022/03/28 06:20:02;;;;;;;;;;;6.20;55.50;;;;;;5087914;28;19908;-73
2022/03/28 06:22:27;;;;;;;;;;;6.20;55.50;;;;;;5088136;28;20002;-73
2022/03/28 06:24:53;;;;;;;;;;;6.20;55.60;;;;;;5088055;28;20363;-74
2022/03/28 06:27:23;;;;;;;;;;;6.30;55.60;;;;;;5086429;28;19912;-74
2022/03/28 06:29:52;;;;;;;;;;;6.30;55.60;;;;;;5087534;28;20320;-73
2022/03/28 06:32:17;;;;;;;;;;;6.40;55.50;;;;;;5087603;28;20367;-73
2022/03/28 06:34:43;;;;;;;;;;;6.40;55.50;;;;;;5087687;28;19958;-74
2022/03/28 06:37:08;;;;;;;;;;;6.40;55.50;;;;;;5087401;28;20342;-74
2022/03/28 06:39:35;;;;;;;;;;;6.40;55.70;;;;;;5087594;28;20290;-74
2022/03/28 06:42:01;;;;;;;;;;;6.40;55.80;;;;;;5087938;28;19985;-74
2022/03/28 06:44:26;;;;;;;;;;;6.40;55.70;;;;;;5087742;28;19921;-73
2022/03/28 06:46:52;;;;;;;;;;;6.40;55.60;;;;;;5087293;28;19916;-73
2022/03/28 06:49:17;;;;;;;;;;;6.40;55.60;;;;;;5087402;28;19966;-74
2022/03/28 06:51:43;;;;;;;;;;;6.50;55.60;;;;;;5087648;28;19912;-73
2022/03/28 06:54:09;;;;;;;;;;;6.50;55.50;;;;;;5087620;28;19947;-75
2022/03/28 06:56:35;;;;;;;;;;;6.60;55.60;;;;;;5087507;28;19990;-74
2022/03/28 06:59:01;;;;;;;;;;;6.60;55.50;;;;;;5087100;28;19919;-74
2022/03/28 07:01:26;;;;;;;;;;;6.70;56.10;;;;;;5087602;28;20354;-74
2022/03/28 07:03:53;;;;;;;;;;;6.70;55.50;;;;;;5087488;28;20278;-73
2022/03/28 07:06:19;;;;;;;;;;;6.80;55.70;;;;;;5087434;28;19916;-74
2022/03/28 07:08:44;;;;;;;;;;;6.80;55.70;;;;;;5087361;28;19912;-74
2022/03/28 07:11:10;;;;;;;;;;;6.80;56.10;;;;;;5087782;28;20409;-74
2022/03/28 07:13:36;;;;;;;;;;;6.90;56.30;;;;;;5086236;28;19962;-74
2022/03/28 07:16:01;;;;;;;;;;;6.90;56.00;;;;;;5087620;28;19916;-74
2022/03/28 07:18:27;;;;;;;;;;;7.00;56.10;;;;;;5087435;28;19912;-74
2022/03/28 07:20:52;;;;;;;;;;;7.00;55.90;;;;;;5088267;28;19919;-73
2022/03/28 07:23:18;;;;;;;;;;;7.10;55.90;;;;;;5091099;28;20389;-74
2022/03/28 07:25:44;;;;;;;;;;;7.10;55.90;;;;;;5089297;28;20347;-74
2022/03/28 07:28:12;;;;;;;;;;;7.20;55.90;;;;;;5089508;28;19912;-74
2022/03/28 07:30:37;;;;;;;;;;;7.20;55.90;;;;;;5090589;28;20321;-74
2022/03/28 07:33:03;;;;;;;;;;;7.30;55.80;;;;;;5089567;28;19919;-74
2022/03/28 07:35:29;;;;;;;;;;;7.40;55.80;;;;;;5072526;28;19912;-73
2022/03/28 07:37:55;;;;;;;;;;;7.40;55.80;;;;;;5090869;28;19912;-73
2022/03/28 07:40:21;;;;;;;;;;;7.40;55.80;;;;;;5089132;28;19912;-73
2022/03/28 07:42:46;;;;;;;;;;;7.30;55.90;;;;;;5090360;28;19924;-74
2022/03/28 07:45:14;;;;;;;;;;;7.30;56.40;;;;;;5090251;28;19920;-74
2022/03/28 07:47:40;;;;;;;;;;;7.40;56.50;;;;;;5090140;28;20285;-74
2022/03/28 07:50:06;;;;;;;;;;;7.70;56.60;;;;;;5090332;28;19991;-73
2022/03/28 07:52:32;;;;;;;;;;;8.20;56.90;;;;;;5090264;28;19916;-74
2022/03/28 07:54:58;;;;;;;;;;;8.90;57.20;;;;;;5089813;28;19934;-74
2022/03/28 07:57:24;;;;;;;;;;;9.80;56.90;;;;;;5089327;28;19920;-74
2022/03/28 07:59:49;;;;;;;;;;;10.50;56.20;;;;;;5090181;28;19919;-72
2022/03/28 08:02:15;;;;;;;;;;;10.90;55.80;;;;;;5090053;28;20290;-75
2022/03/28 08:04:43;;;;;;;;;;;11.30;55.70;;;;;;5088423;28;19935;-74
2022/03/28 08:07:09;;;;;;;;;;;11.60;55.60;;;;;;5088791;28;19916;-74
2022/03/28 08:09:35;;;;;;;;;;;11.80;55.30;;;;;;5090006;28;19912;-74
2022/03/28 08:12:00;;;;;;;;;;;12.00;55.20;;;;;;5089394;28;19912;-74
2022/03/28 08:14:26;;;;;;;;;;;12.30;55.30;;;;;;5089519;28;19912;-71
2022/03/28 08:16:53;;;;;;;;;;;12.40;55.20;;;;;;5088298;28;19916;-72
2022/03/28 08:19:18;;;;;;;;;;;12.60;55.20;;;;;;5089502;28;19912;-72
2022/03/28 08:21:44;;;;;;;;;;;12.80;55.40;;;;;;5088061;28;20282;-72
2022/03/28 08:24:10;;;;;;;;;;;13.30;55.80;;;;;;5089150;28;19926;-72
2022/03/28 08:26:36;;;;;;;;;;;14.10;56.00;;;;;;5089435;28;19908;-72
2022/03/28 08:29:03;;;;;;;;;;;14.90;55.90;;;;;;5088685;28;19976;-72
2022/03/28 08:31:29;;;;;;;;;;;15.60;55.80;;;;;;5090152;28;19909;-73
2022/03/28 08:33:55;;;;;;;;;;;16.40;55.50;;;;;;5089161;28;19935;-72
2022/03/28 08:36:20;;;;;;;;;;;17.20;55.30;;;;;;5090081;28;19991;-72
2022/03/28 08:38:46;;;;;;;;;;;17.80;55.20;;;;;;5089718;28;19919;-73
2022/03/28 08:41:14;;;;;;;;;;;18.20;55.40;;;;;;5089522;28;19926;-74
2022/03/28 08:43:40;;;;;;;;;;;18.70;55.30;;;;;;5087108;28;20408;-73
2022/03/28 08:46:08;;;;;;;;;;;19.10;55.80;;;;;;5088955;28;19912;-73
2022/03/28 08:48:35;;;;;;;;;;;19.60;55.60;;;;;;5088984;28;20374;-73
2022/03/28 08:51:01;;;;;;;;;;;20.30;55.40;;;;;;5088538;28;19953;-74
2022/03/28 08:53:27;;;;;;;;;;;20.90;55.20;;;;;;5088862;28;20379;-73
2022/03/28 08:55:52;;;;;;;;;;;21.50;54.90;;;;;;5088790;28;20006;-73
2022/03/28 08:58:18;;;;;;;;;;;22.00;54.80;;;;;;5088907;28;19962;-74
2022/03/28 09:00:44;;;;;;;;;;;22.40;54.90;;;;;;5088283;28;19916;-73
2022/03/28 09:03:09;;;;;;;;;;;22.90;54.40;;;;;;5088682;28;20018;-74
2022/03/28 09:05:36;;;;;;;;;;;23.20;54.10;;;;;;5088686;28;19927;-74
2022/03/28 09:08:02;;;;;;;;;;;23.50;54.00;;;;;;5087737;28;20258;-73
2022/03/28 09:10:29;;;;;;;;;;;23.80;53.60;;;;;;5088649;28;19912;-73
2022/03/28 09:13:05;;;;;;;;;;;24.10;53.60;;;;;;5088500;28;19998;-73
2022/03/28 09:15:52;;;;;;;;;;;24.40;53.80;;;;;;5088842;28;19916;-74
2022/03/28 09:18:20;;;;;;;;;;;24.70;54.20;;;;;;5081963;28;19961;-73
2022/03/28 09:20:50;;;;;;;;;;;25.10;54.10;;;;;;5088209;28;19948;-74
2022/03/28 09:23:25;;;;;;;;;;;25.40;53.60;;;;;;5088378;28;19907;-72
2022/03/28 09:25:51;;;;;;;;;;;25.70;53.70;;;;;;5084194;28;19927;-74
2022/03/28 09:28:25;;;;;;;;;;;25.80;53.40;;;;;;5088476;28;20435;-73
2022/03/28 09:30:50;;;;;;;;;;;25.90;53.40;;;;;;5088016;28;19991;-73
2022/03/28 09:33:18;;;;;;;;;;;26.00;53.40;;;;;;5088236;28;20327;-72
2022/03/28 09:35:47;;;;;;;;;;;26.20;53.70;;;;;;5088779;28;19922;-73
2022/03/28 09:38:15;;;;;;;;;;;26.50;53.70;;;;;;5085665;28;19912;-68
2022/03/28 09:40:45;;;;;;;;;;;26.70;53.80;;;;;;5094644;28;20018;-72
2022/03/28 09:43:30;;;;;;;;;;;27.00;54.10;;;;;;5097899;28;19934;-73
2022/03/28 09:45:57;;;;;;;;;;;27.10;54.20;;;;;;5096804;28;20345;-73
2022/03/28 09:48:26;;;;;;;;;;;27.30;54.20;;;;;;5098385;28;19912;-73
2022/03/28 09:51:03;;;;;;;;;;;27.40;54.00;;;;;;5099218;28;20346;-74
2022/03/28 09:53:31;;;;;;;;;;;27.50;54.10;;;;;;5097026;28;19961;-74
2022/03/28 09:55:59;;;;;;;;;;;27.70;54.10;;;;;;5094751;28;20436;-73
2022/03/28 09:58:34;;;;;;;;;;;27.90;53.90;;;;;;5089625;28;19908;-74
2022/03/28 10:01:00;;;;;;;;;;;28.00;54.50;;;;;;5093721;28;19916;-74
2022/03/28 10:03:32;;;;;;;;;;;28.10;54.60;;;;;;5096848;28;19908;-74
2022/03/28 10:05:59;;;;;;;;;;;28.40;55.00;;;;;;5100383;28;19935;-73
2022/03/28 10:08:26;;;;;;;;;;;28.70;54.50;;;;;;5098028;28;20252;-73
2022/03/28 10:10:51;;;;;;;;;;;29.00;54.10;;;;;;5100184;28;19998;-73
2022/03/28 10:13:18;;;;;;;;;;;29.20;53.80;;;;;;5100574;28;20053;-74
2022/03/28 10:15:44;;;;;;;;;;;29.40;53.70;;;;;;5098006;28;20373;-74
2022/03/28 10:18:12;;;;;;;;;;;29.40;53.80;;;;;;5095846;28;19916;-74
2022/03/28 10:20:42;;;;;;;;;;;29.50;54.10;;;;;;5080225;28;20319;-74
2022/03/28 10:23:09;;;;;;;;;;;29.80;54.30;;;;;;5097144;28;20264;-74
2022/03/28 10:25:35;;;;;;;;;;;30.00;53.90;;;;;;5093912;28;20507;-73
2022/03/28 10:28:00;;;;;;;;;;;30.20;54.00;;;;;;5095693;28;19916;-72
2022/03/28 10:30:30;;;;;;;;;;;30.30;53.70;;;;;;5096049;28;19912;-73
2022/03/28 10:33:22;;;;;;;;;;;30.50;54.10;;;;;;5097427;28;19939;-74
2022/03/28 10:36:06;;;;;;;;;;;30.70;54.00;;;;;;5107446;28;20371;-73
2022/03/28 10:38:32;;;;;;;;;;;30.70;54.10;;;;;;5108425;28;20352;-73
2022/03/28 10:41:01;;;;;;;;;;;30.50;54.60;;;;;;5108431;28;19947;-74
2022/03/28 10:43:28;;;;;;;;;;;30.60;55.20;;;;;;5107933;28;19962;-74
2022/03/28 10:45:56;;;;;;;;;;;31.00;55.40;;;;;;5106877;28;19912;-74
2022/03/28 10:48:40;;;;;;;;;;;31.30;55.10;;;;;;5108067;28;20296;-75
2022/03/28 10:51:08;;;;;;;;;;;31.40;55.00;;;;;;5107942;28;19953;-73
2022/03/28 10:53:41;;;;;;;;;;;31.70;55.10;;;;;;5107670;28;19912;-71
2022/03/28 10:56:11;;;;;;;;;;;32.10;55.00;;;;;;5107696;28;19908;-74
2022/03/28 10:58:38;;;;;;;;;;;32.40;54.90;;;;;;5105736;28;19912;-73
2022/03/28 11:01:13;;;;;;;;;;;32.60;54.80;;;;;;5100216;28;19954;-73
2022/03/28 11:03:41;;;;;;;;;;;32.40;54.40;;;;;;5100667;28;20365;-73
2022/03/28 11:06:07;;;;;;;;;;;32.20;54.40;;;;;;5097170;28;19916;-72
2022/03/28 11:08:33;;;;;;;;;;;32.00;54.60;;;;;;5095135;28;19919;-74
2022/03/28 11:11:17;;;;;;;;;;;31.90;54.90;;;;;;5091307;28;20384;-74
2022/03/28 11:13:43;;;;;;;;;;;31.90;55.00;;;;;;5089388;28;19908;-74
2022/03/28 11:16:32;;;;;;;;;;;32.00;55.00;;;;;;5090891;28;19999;-73
2022/03/28 11:19:16;;;;;;;;;;;31.70;54.80;;;;;;5087307;28;19919;-74
2022/03/28 11:21:55;;;;;;;;;;;31.40;55.00;;;;;;5089204;28;19919;-74
2022/03/28 11:24:39;;;;;;;;;;;31.00;54.90;;;;;;5090901;28;19961;-74
2022/03/28 11:27:05;;;;;;;;;;;30.70;55.40;;;;;;5088158;28;19937;-74
2022/03/28 11:29:31;;;;;;;;;;;30.50;55.30;;;;;;5090886;28;20342;-74
2022/03/28 11:31:56;;;;;;;;;;;30.20;55.40;;;;;;5090949;28;20546;-72
2022/03/28 11:34:22;;;;;;;;;;;30.10;54.70;;;;;;5091127;28;19919;-73
2022/03/28 11:36:48;;;;;;;;;;;30.20;54.80;;;;;;5090501;28;19919;-74
2022/03/28 11:39:16;;;;;;;;;;;30.30;54.30;;;;;;5090674;28;19912;-74
2022/03/28 11:41:41;;;;;;;;;;;30.20;54.40;;;;;;5091028;28;19924;-74
2022/03/28 11:44:10;;;;;;;;;;;30.30;54.60;;;;;;5089279;28;19935;-73
2022/03/28 11:46:36;;;;;;;;;;;30.50;54.80;;;;;;5091348;28;19918;-74
2022/03/28 11:49:04;;;;;;;;;;;30.90;54.60;;;;;;5090472;28;19932;-73
2022/03/28 11:51:34;;;;;;;;;;;31.40;54.30;;;;;;5090411;28;19908;-74
2022/03/28 11:54:05;;;;;;;;;;;31.70;54.10;;;;;;5090522;28;19912;-72
2022/03/28 11:56:31;;;;;;;;;;;31.90;53.80;;;;;;5090638;28;19915;-76
2022/03/28 11:59:05;;;;;;;;;;;31.80;53.40;;;;;;5088731;28;20358;-74
2022/03/28 12:01:31;;;;;;;;;;;31.60;53.20;;;;;;5088353;28;19969;-73
2022/03/28 12:03:57;;;;;;;;;;;31.50;53.40;;;;;;5089738;28;20012;-73
2022/03/28 12:06:27;;;;;;;;;;;31.40;53.10;;;;;;5089724;28;20075;-73
2022/03/28 12:08:55;;;;;;;;;;;31.10;53.00;;;;;;5092063;28;19957;-72
2022/03/28 12:11:22;;;;;;;;;;;30.90;53.60;;;;;;5088157;28;20360;-73
2022/03/28 12:13:48;;;;;;;;;;;31.00;53.70;;;;;;5088691;28;19908;-73
2022/03/28 12:16:13;;;;;;;;;;;31.00;53.40;;;;;;5089260;28;20253;-74
2022/03/28 12:18:39;;;;;;;;;;;31.20;53.30;;;;;;5094858;28;20418;-73
2022/03/28 12:21:05;;;;;;;;;;;31.30;53.20;;;;;;5090075;28;20026;-74
2022/03/28 12:23:30;;;;;;;;;;;31.00;52.50;;;;;;5093344;28;20324;-73
2022/03/28 12:26:00;;;;;;;;;;;30.70;53.40;;;;;;5097255;28;19922;-72
2022/03/28 12:28:26;;;;;;;;;;;30.70;53.70;;;;;;5100041;28;20207;-72
2022/03/28 12:30:53;;;;;;;;;;;30.60;53.30;;;;;;5100286;28;19912;-72
2022/03/28 12:33:20;;;;;;;;;;;30.40;53.40;;;;;;5097550;28;20306;-72
2022/03/28 12:35:59;;;;;;;;;;;30.30;53.60;;;;;;5099466;28;20465;-70
2022/03/28 12:38:27;;;;;;;;;;;30.10;53.70;;;;;;5096865;28;19908;-74
2022/03/28 12:40:54;;;;;;;;;;;30.00;53.30;;;;;;5098751;28;19912;-73
2022/03/28 12:43:25;;;;;;;;;;;29.50;52.90;;;;;;5099861;28;20295;-74
2022/03/28 12:45:52;;;;;;;;;;;29.20;53.20;;;;;;5100392;28;19918;-73
2022/03/28 12:48:18;;;;;;;;;;;28.40;52.40;;;;;;5100232;28;19915;-73
2022/03/28 12:51:10;;;;;;;;;;;27.50;52.50;;;;;;5099082;28;19943;-73
2022/03/28 12:53:36;;;;;;;;;;;27.00;53.50;;;;;;5090164;28;19951;-73
2022/03/28 12:56:13;;;;;;;;;;;27.00;53.90;;;;;;5098109;28;19939;-73
2022/03/28 12:58:40;;;;;;;;;;;27.30;54.20;;;;;;5097681;28;19920;-73
2022/03/28 13:01:06;;;;;;;;;;;28.00;53.80;;;;;;5099487;28;19908;-73
2022/03/28 13:03:33;;;;;;;;;;;28.20;52.80;;;;;;5099359;28;20321;-72
2022/03/28 13:06:06;;;;;;;;;;;28.10;52.80;;;;;;5097480;28;20411;-73
2022/03/28 13:08:32;;;;;;;;;;;28.00;53.00;;;;;;5098309;28;19912;-65
2022/03/28 13:11:08;;;;;;;;;;;28.20;53.30;;;;;;5097443;28;19938;-73
2022/03/28 13:13:35;;;;;;;;;;;28.30;53.40;;;;;;5094742;28;20009;-74
2022/03/28 13:16:00;;;;;;;;;;;28.20;52.60;;;;;;5100791;28;19908;-73
2022/03/28 13:18:27;;;;;;;;;;;28.00;52.60;;;;;;5093855;28;19965;-74
2022/03/28 13:20:56;;;;;;;;;;;27.90;52.80;;;;;;5088733;28;19912;-74
2022/03/28 13:23:26;;;;;;;;;;;28.00;53.00;;;;;;5088433;28;19923;-73
2022/03/28 13:25:56;;;;;;;;;;;28.20;52.60;;;;;;5088416;28;20212;-73
2022/03/28 13:28:25;;;;;;;;;;;28.10;51.40;;;;;;5086812;28;19923;-72
2022/03/28 13:30:56;;;;;;;;;;;28.00;51.40;;;;;;5095729;28;20319;-73
2022/03/28 13:33:22;;;;;;;;;;;28.10;51.30;;;;;;5097680;28;19991;-73
2022/03/28 13:35:50;;;;;;;;;;;27.90;51.10;;;;;;5097107;28;20046;-73
2022/03/28 13:38:16;;;;;;;;;;;27.70;51.20;;;;;;5095811;28;20383;-73
2022/03/28 13:40:43;;;;;;;;;;;27.50;51.40;;;;;;5087615;28;20370;-73
2022/03/28 13:43:09;;;;;;;;;;;27.30;51.20;;;;;;5100347;28;19924;-73
2022/03/28 13:45:35;;;;;;;;;;;27.10;51.00;;;;;;5098267;28;19939;-72
2022/03/28 13:48:09;;;;;;;;;;;26.60;50.70;;;;;;5100203;28;19913;-73
2022/03/28 13:50:35;;;;;;;;;;;25.80;50.30;;;;;;5096761;28;19916;-73
2022/03/28 13:53:02;;;;;;;;;;;24.90;50.20;;;;;;5097044;28;19919;-73
2022/03/28 13:55:27;;;;;;;;;;;24.20;50.50;;;;;;5097673;28;19912;-72
2022/03/28 13:57:53;;;;;;;;;;;23.80;50.70;;;;;;5098674;28;19919;-71
2022/03/28 14:00:21;;;;;;;;;;;23.50;50.60;;;;;;5100551;28;20267;-71
2022/03/28 14:02:47;;;;;;;;;;;23.10;50.40;;;;;;5108557;28;19948;-73
2022/03/28 14:05:12;;;;;;;;;;;22.80;50.20;;;;;;5108619;28;20360;-72
2022/03/28 14:07:38;;;;;;;;;;;22.60;50.20;;;;;;5108584;28;19954;-72
2022/03/28 14:10:04;;;;;;;;;;;22.40;50.00;;;;;;5108394;28;19916;-72
2022/03/28 14:12:29;;;;;;;;;;;22.20;49.80;;;;;;5108732;28;20414;-73
2022/03/28 14:14:56;;;;;;;;;;;22.10;49.80;;;;;;5108496;28;19997;-72
2022/03/28 14:17:21;;;;;;;;;;;22.00;49.30;;;;;;5108599;28;19957;-72
2022/03/28 14:19:47;;;;;;;;;;;21.90;49.20;;;;;;5108847;28;20274;-75
2022/03/28 14:22:13;;;;;;;;;;;21.90;49.00;;;;;;5109036;28;19912;-74